sensor_id;sensor_type;location;lat;lon;timestamp;P1;durP1;ratioP1;P2;durP2;ratioP2
10582;SDS011;33679;51.218;6.786;2023-05-14T00:00:05;9.67;;;7.10;;
10582;SDS011;33679;51.218;6.786;2023-05-14T00:02:40;8.90;;;6.37;;
10582;SDS011;33679;51.218;6.786;2023-05-14T00:05:13;10.13;;;7.20;;
10582;SDS011;33679;51.218;6.786;2023-05-14T00:07:47;13.83;;;7.80;;
10582;SDS011;33679;51.218;6.786;2023-05-14T00:10:23;8.83;;;7.17;;
10582;SDS011;33679;51.218;6.786;2023-05-14T00:12:55;11.17;;;8.23;;
10582;SDS011;33679;51.218;6.786;2023-05-14T00:15:28;10.30;;;7.43;;
10582;SDS011;33679;51.218;6.786;2023-05-14T00:18:03;7.60;;;5.90;;
10582;SDS011;33679;51.218;6.786;2023-05-14T00:20:38;11.27;;;8.50;;
10582;SDS011;33679;51.218;6.786;2023-05-14T00:23:11;13.03;;;7.90;;
10582;SDS011;33679;51.218;6.786;2023-05-14T00:25:44;11.27;;;7.73;;
10582;SDS011;33679;51.218;6.786;2023-05-14T00:28:18;9.30;;;7.47;;
10582;SDS011;33679;51.218;6.786;2023-05-14T00:30:53;11.10;;;7.40;;
10582;SDS011;33679;51.218;6.786;2023-05-14T00:33:26;12.93;;;9.20;;
10582;SDS011;33679;51.218;6.786;2023-05-14T00:36:00;9.33;;;7.63;;
10582;SDS011;33679;51.218;6.786;2023-05-14T00:38:36;12.10;;;7.10;;
10582;SDS011;33679;51.218;6.786;2023-05-14T00:41:08;10.10;;;6.73;;
10582;SDS011;33679;51.218;6.786;2023-05-14T00:43:40;9.33;;;7.47;;
10582;SDS011;33679;51.218;6.786;2023-05-14T00:46:13;9.43;;;7.10;;
10582;SDS011;33679;51.218;6.786;2023-05-14T00:48:46;9.77;;;7.00;;
10582;SDS011;33679;51.218;6.786;2023-05-14T00:51:22;11.30;;;7.10;;
10582;SDS011;33679;51.218;6.786;2023-05-14T00:53:55;8.37;;;6.60;;
10582;SDS011;33679;51.218;6.786;2023-05-14T00:56:27;8.87;;;6.83;;
10582;SDS011;33679;51.218;6.786;2023-05-14T00:59:00;9.97;;;6.60;;
10582;SDS011;33679;51.218;6.786;2023-05-14T01:01:33;8.20;;;6.47;;
10582;SDS011;33679;51.218;6.786;2023-05-14T01:04:05;10.00;;;7.87;;
10582;SDS011;33679;51.218;6.786;2023-05-14T01:06:43;11.20;;;6.83;;
10582;SDS011;33679;51.218;6.786;2023-05-14T01:09:28;11.37;;;7.47;;
10582;SDS011;33679;51.218;6.786;2023-05-14T01:12:10;12.40;;;7.47;;
10582;SDS011;33679;51.218;6.786;2023-05-14T01:14:52;8.83;;;7.47;;
10582;SDS011;33679;51.218;6.786;2023-05-14T01:17:32;9.50;;;6.90;;
10582;SDS011;33679;51.218;6.786;2023-05-14T01:20:08;9.20;;;7.47;;
10582;SDS011;33679;51.218;6.786;2023-05-14T01:22:45;8.37;;;6.73;;
10582;SDS011;33679;51.218;6.786;2023-05-14T01:25:17;10.30;;;7.50;;
10582;SDS011;33679;51.218;6.786;2023-05-14T01:27:51;13.03;;;8.73;;
10582;SDS011;33679;51.218;6.786;2023-05-14T01:30:33;10.03;;;7.73;;
10582;SDS011;33679;51.218;6.786;2023-05-14T01:33:09;9.40;;;7.40;;
10582;SDS011;33679;51.218;6.786;2023-05-14T01:35:45;9.93;;;7.40;;
10582;SDS011;33679;51.218;6.786;2023-05-14T01:38:20;10.83;;;7.93;;
10582;SDS011;33679;51.218;6.786;2023-05-14T01:40:54;8.30;;;7.13;;
10582;SDS011;33679;51.218;6.786;2023-05-14T01:43:28;12.27;;;7.43;;
10582;SDS011;33679;51.218;6.786;2023-05-14T01:46:04;9.97;;;6.90;;
10582;SDS011;33679;51.218;6.786;2023-05-14T01:48:37;7.73;;;6.00;;
10582;SDS011;33679;51.218;6.786;2023-05-14T01:51:10;8.17;;;6.20;;
10582;SDS011;33679;51.218;6.786;2023-05-14T01:53:46;11.57;;;6.57;;
10582;SDS011;33679;51.218;6.786;2023-05-14T01:56:22;10.30;;;7.10;;
10582;SDS011;33679;51.218;6.786;2023-05-14T01:58:58;9.90;;;6.67;;
10582;SDS011;33679;51.218;6.786;2023-05-14T02:01:31;8.90;;;7.30;;
10582;SDS011;33679;51.218;6.786;2023-05-14T02:04:03;9.40;;;6.77;;
10582;SDS011;33679;51.218;6.786;2023-05-14T02:06:36;10.63;;;7.10;;
10582;SDS011;33679;51.218;6.786;2023-05-14T02:09:11;7.97;;;6.83;;
10582;SDS011;33679;51.218;6.786;2023-05-14T02:11:43;10.00;;;6.73;;
10582;SDS011;33679;51.218;6.786;2023-05-14T02:14:17;10.03;;;6.90;;
10582;SDS011;33679;51.218;6.786;2023-05-14T02:16:50;9.80;;;6.87;;
10582;SDS011;33679;51.218;6.786;2023-05-14T02:19:22;8.37;;;6.87;;
10582;SDS011;33679;51.218;6.786;2023-05-14T02:21:55;8.80;;;6.90;;
10582;SDS011;33679;51.218;6.786;2023-05-14T02:24:32;8.27;;;6.73;;
10582;SDS011;33679;51.218;6.786;2023-05-14T02:27:05;11.63;;;6.80;;
10582;SDS011;33679;51.218;6.786;2023-05-14T02:29:37;13.40;;;7.70;;
10582;SDS011;33679;51.218;6.786;2023-05-14T02:32:10;9.97;;;7.83;;
10582;SDS011;33679;51.218;6.786;2023-05-14T02:34:42;10.43;;;7.47;;
10582;SDS011;33679;51.218;6.786;2023-05-14T02:37:15;13.43;;;8.70;;
10582;SDS011;33679;51.218;6.786;2023-05-14T02:39:52;10.63;;;7.83;;
10582;SDS011;33679;51.218;6.786;2023-05-14T02:42:26;9.23;;;7.70;;
10582;SDS011;33679;51.218;6.786;2023-05-14T02:44:58;11.80;;;8.13;;
10582;SDS011;33679;51.218;6.786;2023-05-14T02:47:31;10.83;;;8.10;;
10582;SDS011;33679;51.218;6.786;2023-05-14T02:50:05;9.83;;;7.67;;
10582;SDS011;33679;51.218;6.786;2023-05-14T02:52:39;16.00;;;9.10;;
10582;SDS011;33679;51.218;6.786;2023-05-14T02:55:13;10.50;;;8.03;;
10582;SDS011;33679;51.218;6.786;2023-05-14T02:57:45;10.37;;;7.63;;
10582;SDS011;33679;51.218;6.786;2023-05-14T03:00:18;9.20;;;6.97;;
10582;SDS011;33679;51.218;6.786;2023-05-14T03:02:51;13.00;;;8.83;;
10582;SDS011;33679;51.218;6.786;2023-05-14T03:05:26;14.30;;;9.20;;
10582;SDS011;33679;51.218;6.786;2023-05-14T03:07:59;11.63;;;8.37;;
10582;SDS011;33679;51.218;6.786;2023-05-14T03:10:33;11.13;;;8.10;;
10582;SDS011;33679;51.218;6.786;2023-05-14T03:13:06;12.30;;;8.70;;
10582;SDS011;33679;51.218;6.786;2023-05-14T03:15:39;12.50;;;8.13;;
10582;SDS011;33679;51.218;6.786;2023-05-14T03:18:12;13.00;;;9.30;;
10582;SDS011;33679;51.218;6.786;2023-05-14T03:20:46;14.60;;;9.00;;
10582;SDS011;33679;51.218;6.786;2023-05-14T03:23:19;14.10;;;9.80;;
10582;SDS011;33679;51.218;6.786;2023-05-14T03:25:55;10.80;;;8.40;;
10582;SDS011;33679;51.218;6.786;2023-05-14T03:28:31;11.50;;;8.77;;
10582;SDS011;33679;51.218;6.786;2023-05-14T03:31:04;11.80;;;8.47;;
10582;SDS011;33679;51.218;6.786;2023-05-14T03:33:37;13.00;;;9.63;;
10582;SDS011;33679;51.218;6.786;2023-05-14T03:36:10;13.93;;;9.40;;
10582;SDS011;33679;51.218;6.786;2023-05-14T03:38:43;15.70;;;8.83;;
10582;SDS011;33679;51.218;6.786;2023-05-14T03:41:18;11.73;;;8.73;;
10582;SDS011;33679;51.218;6.786;2023-05-14T03:43:51;9.27;;;7.70;;
10582;SDS011;33679;51.218;6.786;2023-05-14T03:46:24;10.83;;;8.20;;
10582;SDS011;33679;51.218;6.786;2023-05-14T03:48:57;13.90;;;8.07;;
10582;SDS011;33679;51.218;6.786;2023-05-14T03:51:30;11.03;;;8.33;;
10582;SDS011;33679;51.218;6.786;2023-05-14T03:54:02;10.37;;;7.60;;
10582;SDS011;33679;51.218;6.786;2023-05-14T03:56:36;9.07;;;6.80;;
10582;SDS011;33679;51.218;6.786;2023-05-14T03:59:12;9.17;;;6.57;;
10582;SDS011;33679;51.218;6.786;2023-05-14T04:01:46;12.90;;;8.20;;
10582;SDS011;33679;51.218;6.786;2023-05-14T04:04:19;8.70;;;6.70;;
10582;SDS011;33679;51.218;6.786;2023-05-14T04:06:54;10.07;;;7.67;;
10582;SDS011;33679;51.218;6.786;2023-05-14T04:09:27;12.20;;;7.80;;
10582;SDS011;33679;51.218;6.786;2023-05-14T04:12:05;8.93;;;7.10;;
10582;SDS011;33679;51.218;6.786;2023-05-14T04:14:38;14.03;;;6.70;;
10582;SDS011;33679;51.218;6.786;2023-05-14T04:17:11;7.43;;;6.07;;
10582;SDS011;33679;51.218;6.786;2023-05-14T04:19:43;11.90;;;7.87;;
10582;SDS011;33679;51.218;6.786;2023-05-14T04:22:16;10.50;;;7.87;;
10582;SDS011;33679;51.218;6.786;2023-05-14T04:24:50;15.07;;;7.80;;
10582;SDS011;33679;51.218;6.786;2023-05-14T04:27:24;9.93;;;7.40;;
10582;SDS011;33679;51.218;6.786;2023-05-14T04:29:56;12.77;;;8.40;;
10582;SDS011;33679;51.218;6.786;2023-05-14T04:32:28;9.30;;;7.30;;
10582;SDS011;33679;51.218;6.786;2023-05-14T04:35:01;8.53;;;7.73;;
10582;SDS011;33679;51.218;6.786;2023-05-14T04:37:34;8.90;;;6.40;;
10582;SDS011;33679;51.218;6.786;2023-05-14T04:40:07;6.53;;;5.60;;
10582;SDS011;33679;51.218;6.786;2023-05-14T04:42:44;9.70;;;7.00;;
10582;SDS011;33679;51.218;6.786;2023-05-14T04:45:16;8.10;;;6.60;;
10582;SDS011;33679;51.218;6.786;2023-05-14T04:47:49;7.57;;;6.50;;
10582;SDS011;33679;51.218;6.786;2023-05-14T04:50:22;8.00;;;7.20;;
10582;SDS011;33679;51.218;6.786;2023-05-14T04:52:54;8.87;;;6.27;;
10582;SDS011;33679;51.218;6.786;2023-05-14T04:55:26;7.43;;;6.60;;
10582;SDS011;33679;51.218;6.786;2023-05-14T04:58:01;12.77;;;6.90;;
10582;SDS011;33679;51.218;6.786;2023-05-14T05:00:34;9.50;;;7.40;;
10582;SDS011;33679;51.218;6.786;2023-05-14T05:03:06;11.53;;;7.87;;
10582;SDS011;33679;51.218;6.786;2023-05-14T05:05:40;11.57;;;7.83;;
10582;SDS011;33679;51.218;6.786;2023-05-14T05:08:13;11.60;;;7.23;;
10582;SDS011;33679;51.218;6.786;2023-05-14T05:10:45;10.30;;;7.40;;
10582;SDS011;33679;51.218;6.786;2023-05-14T05:13:19;9.47;;;7.53;;
10582;SDS011;33679;51.218;6.786;2023-05-14T05:15:51;12.20;;;7.67;;
10582;SDS011;33679;51.218;6.786;2023-05-14T05:18:24;9.63;;;7.30;;
10582;SDS011;33679;51.218;6.786;2023-05-14T05:20:56;18.03;;;6.90;;
10582;SDS011;33679;51.218;6.786;2023-05-14T05:23:28;7.60;;;6.80;;
10582;SDS011;33679;51.218;6.786;2023-05-14T05:26:00;9.17;;;7.33;;
10582;SDS011;33679;51.218;6.786;2023-05-14T05:28:34;9.23;;;7.00;;
10582;SDS011;33679;51.218;6.786;2023-05-14T05:31:07;10.03;;;7.10;;
10582;SDS011;33679;51.218;6.786;2023-05-14T05:33:41;9.60;;;7.83;;
10582;SDS011;33679;51.218;6.786;2023-05-14T05:36:15;9.93;;;7.10;;
10582;SDS011;33679;51.218;6.786;2023-05-14T05:38:48;11.50;;;7.07;;
10582;SDS011;33679;51.218;6.786;2023-05-14T05:41:20;10.30;;;7.80;;
10582;SDS011;33679;51.218;6.786;2023-05-14T05:43:54;8.53;;;7.63;;
10582;SDS011;33679;51.218;6.786;2023-05-14T05:46:29;10.30;;;7.10;;
10582;SDS011;33679;51.218;6.786;2023-05-14T05:49:04;11.07;;;7.83;;
10582;SDS011;33679;51.218;6.786;2023-05-14T05:51:38;8.30;;;7.50;;
10582;SDS011;33679;51.218;6.786;2023-05-14T05:54:13;9.50;;;7.90;;
10582;SDS011;33679;51.218;6.786;2023-05-14T05:56:45;9.40;;;7.43;;
10582;SDS011;33679;51.218;6.786;2023-05-14T05:59:20;7.80;;;7.00;;
10582;SDS011;33679;51.218;6.786;2023-05-14T06:01:52;10.83;;;7.73;;
10582;SDS011;33679;51.218;6.786;2023-05-14T06:04:24;8.63;;;7.43;;
10582;SDS011;33679;51.218;6.786;2023-05-14T06:06:59;9.87;;;8.20;;
10582;SDS011;33679;51.218;6.786;2023-05-14T06:09:31;13.43;;;9.00;;
10582;SDS011;33679;51.218;6.786;2023-05-14T06:12:04;12.97;;;8.30;;
10582;SDS011;33679;51.218;6.786;2023-05-14T06:14:38;10.43;;;8.10;;
10582;SDS011;33679;51.218;6.786;2023-05-14T06:17:10;9.27;;;7.93;;
10582;SDS011;33679;51.218;6.786;2023-05-14T06:19:42;13.00;;;8.90;;
10582;SDS011;33679;51.218;6.786;2023-05-14T06:22:15;10.57;;;8.40;;
10582;SDS011;33679;51.218;6.786;2023-05-14T06:24:47;11.43;;;9.30;;
10582;SDS011;33679;51.218;6.786;2023-05-14T06:27:19;10.83;;;9.17;;
10582;SDS011;33679;51.218;6.786;2023-05-14T06:29:56;12.50;;;9.57;;
10582;SDS011;33679;51.218;6.786;2023-05-14T06:32:28;12.10;;;9.67;;
10582;SDS011;33679;51.218;6.786;2023-05-14T06:35:00;11.40;;;8.60;;
10582;SDS011;33679;51.218;6.786;2023-05-14T06:37:36;12.37;;;9.80;;
10582;SDS011;33679;51.218;6.786;2023-05-14T06:40:08;12.50;;;9.20;;
10582;SDS011;33679;51.218;6.786;2023-05-14T06:42:44;15.97;;;10.47;;
10582;SDS011;33679;51.218;6.786;2023-05-14T06:45:17;11.93;;;10.03;;
10582;SDS011;33679;51.218;6.786;2023-05-14T06:47:50;15.97;;;10.23;;
10582;SDS011;33679;51.218;6.786;2023-05-14T06:50:27;15.60;;;10.63;;
10582;SDS011;33679;51.218;6.786;2023-05-14T06:53:00;15.60;;;11.47;;
10582;SDS011;33679;51.218;6.786;2023-05-14T06:55:32;12.50;;;9.97;;
10582;SDS011;33679;51.218;6.786;2023-05-14T06:58:05;16.47;;;10.90;;
10582;SDS011;33679;51.218;6.786;2023-05-14T07:00:39;11.40;;;9.90;;
10582;SDS011;33679;51.218;6.786;2023-05-14T07:03:11;13.47;;;10.03;;
10582;SDS011;33679;51.218;6.786;2023-05-14T07:05:45;11.63;;;9.90;;
10582;SDS011;33679;51.218;6.786;2023-05-14T07:08:17;11.90;;;8.93;;
10582;SDS011;33679;51.218;6.786;2023-05-14T07:10:51;15.90;;;10.00;;
10582;SDS011;33679;51.218;6.786;2023-05-14T07:13:24;12.90;;;10.93;;
10582;SDS011;33679;51.218;6.786;2023-05-14T07:15:58;11.13;;;9.23;;
10582;SDS011;33679;51.218;6.786;2023-05-14T07:18:32;11.30;;;9.40;;
10582;SDS011;33679;51.218;6.786;2023-05-14T07:21:04;13.67;;;10.27;;
10582;SDS011;33679;51.218;6.786;2023-05-14T07:23:37;13.07;;;10.23;;
10582;SDS011;33679;51.218;6.786;2023-05-14T07:26:09;21.17;;;10.20;;
10582;SDS011;33679;51.218;6.786;2023-05-14T07:28:41;11.93;;;10.10;;
10582;SDS011;33679;51.218;6.786;2023-05-14T07:31:15;13.47;;;11.33;;
10582;SDS011;33679;51.218;6.786;2023-05-14T07:33:47;12.50;;;10.40;;
10582;SDS011;33679;51.218;6.786;2023-05-14T07:36:20;13.43;;;10.17;;
10582;SDS011;33679;51.218;6.786;2023-05-14T07:38:54;11.23;;;9.17;;
10582;SDS011;33679;51.218;6.786;2023-05-14T07:41:26;13.70;;;10.83;;
10582;SDS011;33679;51.218;6.786;2023-05-14T07:43:59;14.30;;;11.10;;
10582;SDS011;33679;51.218;6.786;2023-05-14T07:46:34;12.60;;;9.80;;
10582;SDS011;33679;51.218;6.786;2023-05-14T07:49:07;13.17;;;11.03;;
10582;SDS011;33679;51.218;6.786;2023-05-14T07:51:40;13.87;;;10.93;;
10582;SDS011;33679;51.218;6.786;2023-05-14T07:54:15;10.30;;;9.00;;
10582;SDS011;33679;51.218;6.786;2023-05-14T07:56:51;14.27;;;10.97;;
10582;SDS011;33679;51.218;6.786;2023-05-14T07:59:24;14.97;;;10.80;;
10582;SDS011;33679;51.218;6.786;2023-05-14T08:01:58;15.03;;;12.00;;
10582;SDS011;33679;51.218;6.786;2023-05-14T08:04:31;14.20;;;12.60;;
10582;SDS011;33679;51.218;6.786;2023-05-14T08:07:05;13.90;;;11.80;;
10582;SDS011;33679;51.218;6.786;2023-05-14T08:09:38;18.50;;;14.50;;
10582;SDS011;33679;51.218;6.786;2023-05-14T08:12:10;15.83;;;11.67;;
10582;SDS011;33679;51.218;6.786;2023-05-14T08:14:43;19.00;;;13.17;;
10582;SDS011;33679;51.218;6.786;2023-05-14T08:17:16;17.50;;;12.07;;
10582;SDS011;33679;51.218;6.786;2023-05-14T08:19:49;12.53;;;11.13;;
10582;SDS011;33679;51.218;6.786;2023-05-14T08:22:21;13.33;;;10.67;;
10582;SDS011;33679;51.218;6.786;2023-05-14T08:24:54;15.87;;;11.17;;
10582;SDS011;33679;51.218;6.786;2023-05-14T08:27:26;10.10;;;9.00;;
10582;SDS011;33679;51.218;6.786;2023-05-14T08:29:58;16.43;;;13.30;;
10582;SDS011;33679;51.218;6.786;2023-05-14T08:32:32;13.47;;;9.87;;
10582;SDS011;33679;51.218;6.786;2023-05-14T08:35:05;10.13;;;9.13;;
10582;SDS011;33679;51.218;6.786;2023-05-14T08:37:38;15.00;;;10.30;;
10582;SDS011;33679;51.218;6.786;2023-05-14T08:40:10;12.17;;;10.70;;
10582;SDS011;33679;51.218;6.786;2023-05-14T08:42:43;15.43;;;11.30;;
10582;SDS011;33679;51.218;6.786;2023-05-14T08:45:16;13.30;;;10.20;;
10582;SDS011;33679;51.218;6.786;2023-05-14T08:47:51;15.90;;;10.60;;
10582;SDS011;33679;51.218;6.786;2023-05-14T08:50:24;14.40;;;11.53;;
10582;SDS011;33679;51.218;6.786;2023-05-14T08:52:59;14.13;;;9.70;;
10582;SDS011;33679;51.218;6.786;2023-05-14T08:55:31;16.77;;;12.87;;
10582;SDS011;33679;51.218;6.786;2023-05-14T08:58:04;15.20;;;12.20;;
10582;SDS011;33679;51.218;6.786;2023-05-14T09:00:36;15.70;;;12.30;;
10582;SDS011;33679;51.218;6.786;2023-05-14T09:03:10;16.70;;;13.60;;
10582;SDS011;33679;51.218;6.786;2023-05-14T09:05:44;16.80;;;12.23;;
10582;SDS011;33679;51.218;6.786;2023-05-14T09:08:17;14.80;;;11.30;;
10582;SDS011;33679;51.218;6.786;2023-05-14T09:10:50;12.20;;;10.13;;
10582;SDS011;33679;51.218;6.786;2023-05-14T09:13:23;12.47;;;9.97;;
10582;SDS011;33679;51.218;6.786;2023-05-14T09:15:58;13.37;;;10.33;;
10582;SDS011;33679;51.218;6.786;2023-05-14T09:18:36;12.80;;;10.33;;
10582;SDS011;33679;51.218;6.786;2023-05-14T09:21:08;14.37;;;11.70;;
10582;SDS011;33679;51.218;6.786;2023-05-14T09:23:40;14.20;;;10.00;;
10582;SDS011;33679;51.218;6.786;2023-05-14T09:26:15;11.23;;;9.37;;
10582;SDS011;33679;51.218;6.786;2023-05-14T09:28:51;15.43;;;11.97;;
10582;SDS011;33679;51.218;6.786;2023-05-14T09:31:26;13.47;;;11.00;;
10582;SDS011;33679;51.218;6.786;2023-05-14T09:34:01;12.07;;;9.97;;
10582;SDS011;33679;51.218;6.786;2023-05-14T09:36:33;15.80;;;10.77;;
10582;SDS011;33679;51.218;6.786;2023-05-14T09:39:06;12.27;;;9.70;;
10582;SDS011;33679;51.218;6.786;2023-05-14T09:41:42;10.60;;;8.77;;
10582;SDS011;33679;51.218;6.786;2023-05-14T09:44:14;9.73;;;7.67;;
10582;SDS011;33679;51.218;6.786;2023-05-14T09:46:48;11.30;;;9.07;;
10582;SDS011;33679;51.218;6.786;2023-05-14T09:49:22;9.93;;;8.13;;
10582;SDS011;33679;51.218;6.786;2023-05-14T09:51:55;11.53;;;8.33;;
10582;SDS011;33679;51.218;6.786;2023-05-14T09:54:27;11.37;;;8.30;;
10582;SDS011;33679;51.218;6.786;2023-05-14T09:57:04;11.33;;;8.00;;
10582;SDS011;33679;51.218;6.786;2023-05-14T09:59:40;12.53;;;7.57;;
10582;SDS011;33679;51.218;6.786;2023-05-14T10:02:14;9.87;;;7.37;;
10582;SDS011;33679;51.218;6.786;2023-05-14T10:04:55;6.87;;;5.93;;
10582;SDS011;33679;51.218;6.786;2023-05-14T10:07:33;8.97;;;5.43;;
10582;SDS011;33679;51.218;6.786;2023-05-14T10:10:14;8.13;;;6.13;;
10582;SDS011;33679;51.218;6.786;2023-05-14T10:12:49;6.30;;;5.70;;
10582;SDS011;33679;51.218;6.786;2023-05-14T10:15:28;5.30;;;4.03;;
10582;SDS011;33679;51.218;6.786;2023-05-14T10:18:08;5.23;;;4.70;;
10582;SDS011;33679;51.218;6.786;2023-05-14T10:20:44;6.50;;;4.10;;
10582;SDS011;33679;51.218;6.786;2023-05-14T10:23:21;6.90;;;4.13;;
10582;SDS011;33679;51.218;6.786;2023-05-14T10:25:54;5.00;;;4.53;;
10582;SDS011;33679;51.218;6.786;2023-05-14T10:28:28;6.97;;;4.40;;
10582;SDS011;33679;51.218;6.786;2023-05-14T10:31:01;5.73;;;4.70;;
10582;SDS011;33679;51.218;6.786;2023-05-14T10:33:38;5.20;;;4.20;;
10582;SDS011;33679;51.218;6.786;2023-05-14T10:36:20;5.37;;;4.20;;
10582;SDS011;33679;51.218;6.786;2023-05-14T10:38:54;5.00;;;3.60;;
10582;SDS011;33679;51.218;6.786;2023-05-14T10:41:27;5.53;;;3.57;;
10582;SDS011;33679;51.218;6.786;2023-05-14T10:43:59;6.00;;;4.10;;
10582;SDS011;33679;51.218;6.786;2023-05-14T10:47:02;4.37;;;3.77;;
10582;SDS011;33679;51.218;6.786;2023-05-14T10:49:35;4.50;;;3.33;;
10582;SDS011;33679;51.218;6.786;2023-05-14T10:52:11;4.83;;;4.33;;
10582;SDS011;33679;51.218;6.786;2023-05-14T10:54:49;4.77;;;3.90;;
10582;SDS011;33679;51.218;6.786;2023-05-14T10:57:22;4.47;;;4.07;;
10582;SDS011;33679;51.218;6.786;2023-05-14T10:59:57;4.83;;;3.67;;
10582;SDS011;33679;51.218;6.786;2023-05-14T11:02:32;6.03;;;4.50;;
10582;SDS011;33679;51.218;6.786;2023-05-14T11:05:06;4.70;;;3.97;;
10582;SDS011;33679;51.218;6.786;2023-05-14T11:07:43;4.00;;;3.60;;
10582;SDS011;33679;51.218;6.786;2023-05-14T11:10:17;7.70;;;3.80;;
10582;SDS011;33679;51.218;6.786;2023-05-14T11:12:51;6.50;;;4.30;;
10582;SDS011;33679;51.218;6.786;2023-05-14T11:15:26;6.40;;;3.63;;
10582;SDS011;33679;51.218;6.786;2023-05-14T11:18:01;6.00;;;4.67;;
10582;SDS011;33679;51.218;6.786;2023-05-14T11:20:35;11.77;;;3.93;;
10582;SDS011;33679;51.218;6.786;2023-05-14T11:23:10;4.80;;;4.20;;
10582;SDS011;33679;51.218;6.786;2023-05-14T11:25:42;4.93;;;3.90;;
10582;SDS011;33679;51.218;6.786;2023-05-14T11:28:14;5.90;;;4.07;;
10582;SDS011;33679;51.218;6.786;2023-05-14T11:30:50;7.43;;;3.67;;
10582;SDS011;33679;51.218;6.786;2023-05-14T11:33:23;9.03;;;4.47;;
10582;SDS011;33679;51.218;6.786;2023-05-14T11:35:58;5.43;;;3.50;;
10582;SDS011;33679;51.218;6.786;2023-05-14T11:38:32;5.97;;;4.27;;
10582;SDS011;33679;51.218;6.786;2023-05-14T11:41:05;4.30;;;3.37;;
10582;SDS011;33679;51.218;6.786;2023-05-14T11:43:37;5.87;;;3.47;;
10582;SDS011;33679;51.218;6.786;2023-05-14T11:46:14;7.63;;;2.90;;
10582;SDS011;33679;51.218;6.786;2023-05-14T11:48:51;2.77;;;2.47;;
10582;SDS011;33679;51.218;6.786;2023-05-14T11:51:23;3.40;;;2.87;;
10582;SDS011;33679;51.218;6.786;2023-05-14T11:53:59;3.63;;;2.40;;
10582;SDS011;33679;51.218;6.786;2023-05-14T11:56:33;3.40;;;2.97;;
10582;SDS011;33679;51.218;6.786;2023-05-14T11:59:05;4.00;;;2.63;;
10582;SDS011;33679;51.218;6.786;2023-05-14T12:01:41;4.00;;;2.90;;
10582;SDS011;33679;51.218;6.786;2023-05-14T12:04:15;3.37;;;2.87;;
10582;SDS011;33679;51.218;6.786;2023-05-14T12:06:51;4.50;;;3.10;;
10582;SDS011;33679;51.218;6.786;2023-05-14T12:09:26;3.73;;;2.27;;
10582;SDS011;33679;51.218;6.786;2023-05-14T12:11:59;3.57;;;2.83;;
10582;SDS011;33679;51.218;6.786;2023-05-14T12:14:39;3.23;;;2.90;;
10582;SDS011;33679;51.218;6.786;2023-05-14T12:17:13;4.30;;;3.00;;
10582;SDS011;33679;51.218;6.786;2023-05-14T12:19:47;3.97;;;2.67;;
10582;SDS011;33679;51.218;6.786;2023-05-14T12:22:21;5.60;;;2.77;;
10582;SDS011;33679;51.218;6.786;2023-05-14T12:24:55;4.73;;;3.00;;
10582;SDS011;33679;51.218;6.786;2023-05-14T12:27:35;2.90;;;2.60;;
10582;SDS011;33679;51.218;6.786;2023-05-14T12:30:10;4.33;;;2.60;;
10582;SDS011;33679;51.218;6.786;2023-05-14T12:32:43;5.27;;;2.70;;
10582;SDS011;33679;51.218;6.786;2023-05-14T12:35:16;2.57;;;2.27;;
10582;SDS011;33679;51.218;6.786;2023-05-14T12:37:48;3.10;;;2.53;;
10582;SDS011;33679;51.218;6.786;2023-05-14T12:40:22;5.40;;;3.40;;
10582;SDS011;33679;51.218;6.786;2023-05-14T12:42:55;6.73;;;2.93;;
10582;SDS011;33679;51.218;6.786;2023-05-14T12:45:30;3.93;;;2.70;;
10582;SDS011;33679;51.218;6.786;2023-05-14T12:48:02;2.30;;;2.10;;
10582;SDS011;33679;51.218;6.786;2023-05-14T12:50:35;4.63;;;2.90;;
10582;SDS011;33679;51.218;6.786;2023-05-14T12:53:07;4.23;;;3.27;;
10582;SDS011;33679;51.218;6.786;2023-05-14T12:55:41;3.00;;;2.63;;
10582;SDS011;33679;51.218;6.786;2023-05-14T12:58:13;3.20;;;2.67;;
10582;SDS011;33679;51.218;6.786;2023-05-14T13:00:45;4.07;;;2.87;;
10582;SDS011;33679;51.218;6.786;2023-05-14T13:03:20;3.20;;;2.33;;
10582;SDS011;33679;51.218;6.786;2023-05-14T13:05:52;3.33;;;2.60;;
10582;SDS011;33679;51.218;6.786;2023-05-14T13:08:25;2.60;;;2.30;;
10582;SDS011;33679;51.218;6.786;2023-05-14T13:10:59;3.43;;;3.00;;
10582;SDS011;33679;51.218;6.786;2023-05-14T13:13:33;3.67;;;2.30;;
10582;SDS011;33679;51.218;6.786;2023-05-14T13:16:06;6.50;;;4.23;;
10582;SDS011;33679;51.218;6.786;2023-05-14T13:18:38;13.03;;;6.27;;
10582;SDS011;33679;51.218;6.786;2023-05-14T13:21:13;6.27;;;3.90;;
10582;SDS011;33679;51.218;6.786;2023-05-14T13:23:45;5.50;;;4.00;;
10582;SDS011;33679;51.218;6.786;2023-05-14T13:26:19;3.43;;;2.63;;
10582;SDS011;33679;51.218;6.786;2023-05-14T13:28:51;4.50;;;2.60;;
10582;SDS011;33679;51.218;6.786;2023-05-14T13:31:24;3.00;;;2.70;;
10582;SDS011;33679;51.218;6.786;2023-05-14T13:33:57;5.73;;;3.60;;
10582;SDS011;33679;51.218;6.786;2023-05-14T13:36:31;2.43;;;2.23;;
10582;SDS011;33679;51.218;6.786;2023-05-14T13:39:08;3.13;;;2.60;;
10582;SDS011;33679;51.218;6.786;2023-05-14T13:41:42;3.13;;;2.57;;
10582;SDS011;33679;51.218;6.786;2023-05-14T13:44:15;4.70;;;2.93;;
10582;SDS011;33679;51.218;6.786;2023-05-14T13:46:48;4.20;;;2.40;;
10582;SDS011;33679;51.218;6.786;2023-05-14T13:49:20;4.30;;;2.50;;
10582;SDS011;33679;51.218;6.786;2023-05-14T13:52:06;3.00;;;2.70;;
10582;SDS011;33679;51.218;6.786;2023-05-14T13:54:38;3.90;;;2.53;;
10582;SDS011;33679;51.218;6.786;2023-05-14T13:57:14;3.10;;;2.80;;
10582;SDS011;33679;51.218;6.786;2023-05-14T13:59:47;4.23;;;3.33;;
10582;SDS011;33679;51.218;6.786;2023-05-14T14:02:19;7.13;;;4.20;;
10582;SDS011;33679;51.218;6.786;2023-05-14T14:04:52;5.80;;;4.33;;
10582;SDS011;33679;51.218;6.786;2023-05-14T14:07:24;11.07;;;6.60;;
10582;SDS011;33679;51.218;6.786;2023-05-14T14:09:56;7.50;;;4.87;;
10582;SDS011;33679;51.218;6.786;2023-05-14T14:12:32;7.40;;;4.67;;
10582;SDS011;33679;51.218;6.786;2023-05-14T14:15:04;4.10;;;3.40;;
10582;SDS011;33679;51.218;6.786;2023-05-14T14:17:37;5.90;;;2.80;;
10582;SDS011;33679;51.218;6.786;2023-05-14T14:20:22;2.93;;;2.73;;
10582;SDS011;33679;51.218;6.786;2023-05-14T14:22:57;2.97;;;2.50;;
10582;SDS011;33679;51.218;6.786;2023-05-14T14:25:30;3.97;;;3.10;;
10582;SDS011;33679;51.218;6.786;2023-05-14T14:28:06;2.90;;;2.60;;
10582;SDS011;33679;51.218;6.786;2023-05-14T14:30:40;4.60;;;2.70;;
10582;SDS011;33679;51.218;6.786;2023-05-14T14:33:13;4.43;;;2.90;;
10582;SDS011;33679;51.218;6.786;2023-05-14T14:35:45;4.73;;;2.80;;
10582;SDS011;33679;51.218;6.786;2023-05-14T14:38:17;6.33;;;3.67;;
10582;SDS011;33679;51.218;6.786;2023-05-14T14:40:50;7.00;;;4.03;;
10582;SDS011;33679;51.218;6.786;2023-05-14T14:43:23;4.40;;;3.63;;
10582;SDS011;33679;51.218;6.786;2023-05-14T14:45:56;5.60;;;2.93;;
10582;SDS011;33679;51.218;6.786;2023-05-14T14:48:32;2.90;;;2.53;;
10582;SDS011;33679;51.218;6.786;2023-05-14T14:51:07;4.00;;;3.10;;
10582;SDS011;33679;51.218;6.786;2023-05-14T14:53:39;3.10;;;2.80;;
10582;SDS011;33679;51.218;6.786;2023-05-14T14:56:12;5.10;;;3.57;;
10582;SDS011;33679;51.218;6.786;2023-05-14T14:58:49;3.30;;;2.40;;
10582;SDS011;33679;51.218;6.786;2023-05-14T15:01:21;4.40;;;2.97;;
10582;SDS011;33679;51.218;6.786;2023-05-14T15:03:54;2.70;;;2.50;;
10582;SDS011;33679;51.218;6.786;2023-05-14T15:06:26;4.23;;;2.40;;
10582;SDS011;33679;51.218;6.786;2023-05-14T15:08:59;5.43;;;3.40;;
10582;SDS011;33679;51.218;6.786;2023-05-14T15:11:31;7.70;;;4.07;;
10582;SDS011;33679;51.218;6.786;2023-05-14T15:14:04;9.10;;;2.80;;
10582;SDS011;33679;51.218;6.786;2023-05-14T15:16:37;3.70;;;2.60;;
10582;SDS011;33679;51.218;6.786;2023-05-14T15:19:12;2.70;;;2.30;;